LIMFLICA

Guest
Details From LIMF - Torino Caselle
To LICA - Lamezia Terme
Flight Number -
Tags Generated
Created
Modified
Stats Distance 538 nm / 996 km
Max Altitude 0 ft / 0 m
Waypoints 4
Social Downloads 0
Likes 0
Share VATSIM

Download

Looking for another format? Having issues loading an existing format? Contact us
Advertisement - Login to hide

Notes

Generated

Route

LIMF CIA25 SOMAS LICA

ID Type Via Altitude Latitude Longitude Leg Dist Tot Dist Heading (true) Name
O LIMF APT - 0 ft / 0 m 45.21559˚ 7.65057˚ - 0 nm - -
CIA25 FIX - 0 ft / 0 m 41.82489˚ 12.57638˚ 295 nm 295 nm 132° / 135° -
SOMAS FIX - 0 ft / 0 m 39.12639˚ 15.96889˚ 224 nm 519 nm 135° / 137° -
O LICA APT - 0 ft / 0 m 38.90699˚ 16.22859˚ 17 nm 537 nm 137° / 137° -

Altitude Profile

Advertisement - Login to hide

Weather


0- 5 10 15 20 25 30 35+ Temperature / ° C

Clouds and Precipitation
Forecast for 2017-12-14 00:00 UTC. Updated an hour ago

Ground ~20,000 ft ~40,000 ft Winds

LIMF

Details ICAO LIMF (TRN)
Name Torino Caselle
Region Italy
Timezone Europe/Rome (UTC+1.0)
Stats Elevation 989 ft / 301 m (AMSL)
Location 45.200763° 7.649630°
Runways 1
Magnetic Variation 2.122° E

METAR

LIMF 132020Z VRB01KT CAVOK 00/M05 Q1014

Decode

TAF

TAF LIMF 131700Z 1318/1418 VRB05KT CAVOK

Decode

Departure Runways

ID Width Length Bearing (true) Bearing (mag) Surface Threshold Offset Overrun Length
18 197 ft / 60 m 10,835 ft / 3,303 m 182.56° 180.44° Asphalt 2,378 ft / 725 m 970 ft / 296 m
36 197 ft / 60 m 10,835 ft / 3,303 m 2.56° 0.44° Asphalt 1,148 ft / 350 m 0 ft / 0 m

LICA

Details ICAO LICA (SUF)
Name Lamezia Terme
Region Italy
Timezone Europe/Rome (UTC+1.0)
Stats Elevation 39 ft / 12 m (AMSL)
Location 38.905394° 16.242271°
Runways 1
Magnetic Variation 3.494° E

METAR

LICA 131950Z 28014KT 9999 FEW020 BKN060 14/11 Q1020

Decode

TAF

TAF LICA 131700Z 1318/1418 27013KT 9999 SCT030 TEMPO 1318/1403 SHRA

Decode

Destination Runways

ID Width Length Bearing (true) Bearing (mag) Surface Threshold Offset Overrun Length
10 148 ft / 45 m 7,858 ft / 2,395 m 98.54° 95.05° Asphalt 348 ft / 106 m 0 ft / 0 m
28 148 ft / 45 m 7,858 ft / 2,395 m 278.55° 275.06° Asphalt 351 ft / 107 m 0 ft / 0 m

Approach Navaids

Runway Type Ident Frequency Range Bearing (true) Bearing (mag) Slope Elevation
28 Localiser LAM 110.30 MHz 18 nm / 33 km 278.54° 275.04° - 21 ft / 6 m (AMSL)
28 Glidescope LAM 110.30 MHz 10 nm / 19 km 278.55° 275.05° 3.00° 21 ft / 6 m (AMSL)
28 DME LAM 110.30 MHz 25 nm / 46 km - - - 21 ft / 6 m (AMSL)

Popular Alternatives